Hatteras, NC (27943)

8:09 PM EDT on August 28, 2016 (GMT -0400)
MARITIME | | Change Station
Active Advisory: Beach Hazard Statement

Elev 0 ft 47.50 °N, 27.70 °W | Updated 13 hours ago

Cloudy
Cloudy
79 °F
Feels Like 79 °F
N
6
Wind Variable Wind from ENE
Gusts mph

Today
High -- | Low -- °F
--% Chance of Precip.
Yesterday
High -- | Low -- °F
Precip. -- in
Pressure 30.09 in
Visibility 10.0 miles
Clouds Scattered Clouds 6500 ft
Dew Point 74 °F
Humidity 84%
Rainfall in
Snow Depth Not available.
6:32 AM 7:34 PM
Waning Crescent, 12% visible
METAR KHSE 282351Z AUTO 05005KT 10SM SCT065 27/24 A3008 RMK AO2 SLP187 60001 T02670239 10300 20267 50002 TSNO
Pressure 30.09 in
Visibility 10.0 miles
Clouds Scattered Clouds 6500 ft
Dew Point 74 °F
Humidity 84%
Rainfall in
Snow Depth Not available.
6:32 AM 7:34 PM
Waning Crescent, 12% visible
METAR KHSE 282351Z AUTO 05005KT 10SM SCT065 27/24 A3008 RMK AO2 SLP187 60001 T02670239 10300 20267 50002 TSNO

10-Day Weather Forecast

Almanac

Astronomy

Aug. 28, 2016 Rise Set
Actual Time
Civil Twilight
Nautical Twilight
Astronomical Twilight
Moon
Length of Visible Light
Length of Day
Tomorrow will be .
, % of the Moon is Illuminated

Today's Extremes

State Highs State Lows

Community

WunderPhotos

Upload Photos

1,935,726 photos uploaded!

WunderBlog® & News

Nearby

Air Quality

  Air Quality AQ Index Pollutant
Not available.

Snow Depth

Station Depth Elevation

Earthquake Activity

City Distance Mag. Time & Date
Minimum magnitude displayed is 2.5.

Coastal Water Temperatures

Place Temperature

Stations

Nearby Weather Stations

Station Location Temp. Windchill Dew Point Humidity Wind Precip. Elev Updated Type
                   

Watches & Warnings

Beach Hazard Statement
Issued: 4:27 PM EDT Aug. 28, 2016 – National Weather Service

... Beach hazards statement in effect from 8 PM EDT this evening
through Monday evening...

The National Weather Service in Newport/Morehead City has issued
a beach hazards statement... which is in effect from 8 PM EDT this
evening through Monday evening.

* Hazards... high threat of rip currents

* location... beaches from Surf City to Duck

* timing and tides... the best chance for strong rip currents will
be a few hours either side of low tide... which occurs between
1130 am and noon Monday afternoon. However... significant long
period swells will make conditions dangerous during at all
times.

Swim near a lifeguard. If caught in a rip current remain calm.
Don't fight the current. Swim in a direction following the
shoreline. When out of the current, swim back to shore. If tired,
float or tread water until out of the rip current. If unable to
escape, face the shore and call or wave for help.
Precautionary/preparedness actions...